Time;durP1;ratioP1;P1;durP2;ratioP2;P2;SDS_P1;SDS_P2;PMS_P1;PMS_P2;Temp;Humidity;BMP_temperature;BMP_pressure;BME280_temperature;BME280_humidity;BME280_pressure;Samples;Min_cycle;Max_cycle;Signal;HPM_P1;HPM_P2
2023/07/31 00:01:19;;;;;;;6.32;2.10;;;;;;;20.67;50.11;100527.75;4123581;28;20540;-70
2023/07/31 00:03:22;;;;;;;6.22;2.25;;;;;;;20.57;49.91;100529.75;4127365;28;20044;-69
2023/07/31 00:05:25;;;;;;;4.22;1.85;;;;;;;20.63;49.89;100523.41;4109550;28;20035;-70
2023/07/31 00:07:28;;;;;;;4.30;1.50;;;;;;;20.51;50.41;100534.31;4121349;28;20054;-70
2023/07/31 00:09:31;;;;;;;7.30;1.95;;;;;;;20.40;50.55;100529.31;4122762;28;20045;-69
2023/07/31 00:11:35;;;;;;;6.32;1.95;;;;;;;20.47;50.35;100525.63;4131232;28;20030;-69
2023/07/31 00:13:38;;;;;;;6.07;2.13;;;;;;;20.44;50.48;100532.72;4128073;28;20508;-69
2023/07/31 00:15:41;;;;;;;6.63;1.70;;;;;;;20.46;51.08;100531.78;4128702;28;20117;-70
2023/07/31 00:17:44;;;;;;;4.70;1.67;;;;;;;20.48;50.81;100526.47;4127180;28;20046;-69
2023/07/31 00:19:49;;;;;;;6.88;2.03;;;;;;;20.49;51.24;100521.16;4131691;28;20080;-70
2023/07/31 00:21:52;;;;;;;4.15;1.70;;;;;;;20.45;51.27;100519.50;4114057;28;20513;-69
2023/07/31 00:23:54;;;;;;;5.93;2.13;;;;;;;20.39;51.70;100520.50;4129701;28;20039;-69
2023/07/31 00:25:56;;;;;;;6.03;2.40;;;;;;;20.30;51.91;100520.75;4123027;28;20042;-69
2023/07/31 00:28:02;;;;;;;7.55;1.80;;;;;;;20.34;51.53;100521.53;4131516;28;20063;-69
2023/07/31 00:30:06;;;;;;;6.55;2.30;;;;;;;20.39;51.64;100520.50;4113328;28;20078;-69
2023/07/31 00:32:09;;;;;;;5.85;1.95;;;;;;;20.33;52.03;100514.53;4112790;28;20098;-70
2023/07/31 00:34:14;;;;;;;5.28;2.03;;;;;;;20.23;51.96;100512.09;4113083;28;20043;-69
2023/07/31 00:36:17;;;;;;;4.50;1.85;;;;;;;20.12;51.91;100514.16;4113534;28;20054;-69
2023/07/31 00:38:20;;;;;;;6.95;1.88;;;;;;;20.08;52.28;100511.63;4114286;28;20039;-69
2023/07/31 00:40:23;;;;;;;6.32;1.63;;;;;;;19.97;52.40;100507.47;4107163;28;20043;-69
2023/07/31 00:42:26;;;;;;;7.10;1.85;;;;;;;20.00;52.21;100509.16;4094910;29;20067;-69
2023/07/31 00:44:30;;;;;;;6.10;1.98;;;;;;;19.90;52.21;100502.38;4126672;28;20038;-69
2023/07/31 00:46:33;;;;;;;6.95;2.42;;;;;;;19.92;52.76;100513.75;4126387;28;20104;-69
2023/07/31 00:48:39;;;;;;;6.55;2.15;;;;;;;19.87;53.04;100509.47;4109283;28;20050;-70
2023/07/31 00:50:41;;;;;;;6.82;2.55;;;;;;;19.90;53.29;100515.56;4126634;28;20058;-69
2023/07/31 00:52:44;;;;;;;5.05;1.80;;;;;;;19.79;53.14;100508.78;4127500;28;20133;-69
2023/07/31 00:54:47;;;;;;;7.53;2.03;;;;;;;19.69;53.56;100500.16;4095637;28;20046;-69
2023/07/31 00:56:53;;;;;;;5.00;2.00;;;;;;;19.76;53.34;100492.13;4107786;28;20073;-69
2023/07/31 00:58:57;;;;;;;3.95;1.67;;;;;;;19.73;53.42;100505.38;4109029;28;20129;-69
2023/07/31 01:01:01;;;;;;;2.97;1.70;;;;;;;19.79;53.78;100502.66;4126633;28;20097;-69
2023/07/31 01:03:05;;;;;;;7.75;1.95;;;;;;;19.72;54.16;100496.59;4093296;28;20039;-69
2023/07/31 01:05:08;;;;;;;4.38;2.13;;;;;;;19.79;53.18;100495.59;4107762;28;20413;-69
2023/07/31 01:07:23;;;;;;;6.53;2.03;;;;;;;19.64;53.15;100487.97;4106357;28;20049;-69
2023/07/31 01:09:33;;;;;;;5.07;2.33;;;;;;;19.56;54.23;100498.72;4089431;29;20047;-69
2023/07/31 01:11:43;;;;;;;3.72;1.52;;;;;;;19.54;53.99;100495.25;4109992;28;20121;-69
2023/07/31 01:13:45;;;;;;;4.80;2.05;;;;;;;19.61;53.92;100498.59;4110185;28;20133;-69
2023/07/31 01:15:48;;;;;;;5.13;2.13;;;;;;;19.57;54.07;100502.25;4109494;28;20031;-69
2023/07/31 01:17:53;;;;;;;5.93;1.80;;;;;;;19.43;54.59;100490.19;4107040;28;20040;-68
2023/07/31 01:20:00;;;;;;;5.43;1.80;;;;;;;19.45;54.79;100488.41;4109882;28;20061;-69
2023/07/31 01:22:34;;;;;;;6.45;2.25;;;;;;;19.44;55.01;100491.94;4126926;28;20360;-69
2023/07/31 01:24:49;;;;;;;4.95;1.75;;;;;;;19.35;54.74;100487.75;4114600;28;20050;-69
2023/07/31 01:26:57;;;;;;;;;;;;;;;19.29;55.25;100484.34;4113957;28;20043;-69
2023/07/31 01:29:06;;;;;;;10.05;2.78;;;;;;;19.40;54.90;100487.63;4111350;28;19922;-69
2023/07/31 01:31:12;;;;;;;5.22;1.92;;;;;;;19.39;55.04;100483.28;4114070;28;20042;-69
2023/07/31 01:33:16;;;;;;;5.30;2.05;;;;;;;19.40;54.95;100494.69;4109258;28;20404;-69
2023/07/31 01:35:19;;;;;;;5.93;1.83;;;;;;;19.38;54.71;100489.44;4107758;28;20062;-69
2023/07/31 01:37:22;;;;;;;3.33;1.50;;;;;;;19.35;55.13;100485.09;4128053;28;20483;-69
2023/07/31 01:39:25;;;;;;;5.43;1.92;;;;;;;19.36;55.01;100483.31;4109572;28;20089;-70
2023/07/31 01:41:28;;;;;;;6.88;1.65;;;;;;;19.41;55.17;100481.47;4111754;28;20070;-70
2023/07/31 01:43:33;;;;;;;3.85;1.92;;;;;;;19.33;55.04;100476.38;4111969;28;20066;-70
2023/07/31 01:45:36;;;;;;;4.53;1.63;;;;;;;19.32;55.29;100479.03;4094454;29;20043;-69
2023/07/31 01:47:38;;;;;;;5.65;1.98;;;;;;;19.25;55.54;100478.31;4127685;28;20511;-69
2023/07/31 01:49:41;;;;;;;5.32;1.60;;;;;;;19.28;55.25;100483.50;4127745;28;20051;-69
2023/07/31 01:51:44;;;;;;;4.25;2.10;;;;;;;19.21;55.97;100481.91;4107159;28;20133;-69
2023/07/31 01:53:47;;;;;;;7.00;1.83;;;;;;;19.25;55.53;100482.72;4126640;28;20045;-69
2023/07/31 01:55:51;;;;;;;4.63;2.00;;;;;;;19.33;55.16;100479.00;4112869;28;20035;-69
2023/07/31 01:57:54;;;;;;;7.40;2.25;;;;;;;19.35;55.19;100474.56;4130026;28;20043;-69
2023/07/31 02:00:00;;;;;;;3.47;1.70;;;;;;;19.31;55.40;100472.03;4129040;28;20053;-69
2023/07/31 02:02:13;;;;;;;8.35;2.00;;;;;;;19.30;55.03;100472.94;4124434;28;20054;-69
2023/07/31 02:04:16;;;;;;;4.95;1.77;;;;;;;19.36;54.73;100467.50;4130235;28;20407;-69
2023/07/31 02:06:18;;;;;;;4.03;1.92;;;;;;;19.36;55.07;100464.88;4114305;28;20039;-69
2023/07/31 02:08:21;;;;;;;6.93;1.90;;;;;;;19.17;55.57;100467.94;4113036;28;20077;-68
2023/07/31 02:10:24;;;;;;;6.63;1.98;;;;;;;19.11;55.68;100457.50;4117532;23;1046894;-67
2023/07/31 02:12:30;;;;;;;5.72;1.92;;;;;;;19.18;55.76;100453.84;4148565;28;20044;-67
2023/07/31 02:14:33;;;;;;;6.40;2.15;;;;;;;19.22;55.62;100445.88;4133003;28;20046;-67
2023/07/31 02:16:38;;;;;;;4.45;1.83;;;;;;;19.31;54.63;100443.03;4139903;28;20045;-67
2023/07/31 02:18:41;;;;;;;4.55;2.22;;;;;;;19.17;55.59;100443.31;4159708;28;20049;-67
2023/07/31 02:20:46;;;;;;;5.85;2.30;;;;;;;19.14;55.63;100440.75;4147007;28;20042;-67
2023/07/31 02:22:48;;;;;;;;;;;;;;;19.14;55.79;100438.13;4148254;28;20149;-67
2023/07/31 02:24:51;;;;;;;8.27;1.80;;;;;;;19.22;55.15;100436.19;4149495;28;20008;-67
2023/07/31 02:26:56;;;;;;;;;;;;;;;19.05;55.92;100441.81;4147560;28;20042;-67
2023/07/31 02:28:58;;;;;;;6.18;2.28;;;;;;;18.98;55.65;100446.38;4140895;28;19976;-67
2023/07/31 02:31:01;;;;;;;5.20;2.72;;;;;;;18.98;56.13;100440.22;4143793;28;20062;-67
2023/07/31 02:33:06;;;;;;;4.00;2.00;;;;;;;19.00;56.14;100438.44;4146476;28;20046;-67
2023/07/31 02:35:11;;;;;;;7.90;2.53;;;;;;;18.96;55.63;100442.88;4147514;28;20069;-67
2023/07/31 02:37:14;;;;;;;7.88;2.17;;;;;;;19.06;56.08;100438.28;4141570;28;20539;-67
2023/07/31 02:39:16;;;;;;;7.35;1.98;;;;;;;19.07;55.64;100445.31;4144834;28;20132;-67
2023/07/31 02:41:18;;;;;;;4.93;1.70;;;;;;;19.05;55.94;100443.59;4139377;28;20072;-67
2023/07/31 02:43:22;;;;;;;6.75;2.45;;;;;;;19.07;55.34;100444.41;4143201;28;20036;-67
2023/07/31 02:45:25;;;;;;;5.97;1.80;;;;;;;18.96;55.96;100434.13;4144588;28;20066;-67
2023/07/31 02:47:28;;;;;;;10.70;2.55;;;;;;;18.94;56.06;100441.16;4127496;28;20034;-67
2023/07/31 02:49:32;;;;;;;6.40;2.28;;;;;;;19.01;56.00;100440.16;4143223;28;20046;-67
2023/07/31 02:51:35;;;;;;;3.75;1.70;;;;;;;18.93;56.35;100447.38;4143058;28;20037;-67
2023/07/31 02:53:38;;;;;;;9.10;2.17;;;;;;;18.89;56.28;100441.28;4144084;28;20518;-67
2023/07/31 02:55:42;;;;;;;8.18;2.58;;;;;;;18.95;55.85;100446.44;4138689;28;20136;-67
2023/07/31 02:57:44;;;;;;;8.00;2.08;;;;;;;18.97;55.93;100433.22;4117753;28;20054;-67
2023/07/31 02:59:46;;;;;;;5.72;2.05;;;;;;;18.98;55.80;100434.94;4159646;28;20076;-67
2023/07/31 03:01:49;;;;;;;5.30;1.92;;;;;;;19.03;55.79;100430.47;4142284;28;20101;-67
2023/07/31 03:03:51;;;;;;;10.02;2.47;;;;;;;19.02;55.52;100429.56;4142755;28;20126;-67
2023/07/31 03:05:55;;;;;;;5.18;2.22;;;;;;;19.00;55.22;100428.75;4143312;28;20098;-67
2023/07/31 03:07:59;;;;;;;7.15;2.30;;;;;;;19.04;55.12;100429.56;4156770;28;20120;-67
2023/07/31 03:10:02;;;;;;;4.22;1.92;;;;;;;19.00;55.07;100430.53;4142735;28;20038;-67
2023/07/31 03:12:06;;;;;;;6.68;2.10;;;;;;;19.07;55.43;100423.34;4144647;28;20633;-67
2023/07/31 03:14:09;;;;;;;10.40;2.53;;;;;;;19.17;54.98;100422.25;4127704;28;20427;-67
2023/07/31 03:16:12;;;;;;;9.30;2.15;;;;;;;19.10;55.20;100437.34;4142019;28;20042;-67
2023/07/31 03:18:15;;;;;;;5.57;2.20;;;;;;;19.07;56.00;100434.78;4137770;28;20478;-67
2023/07/31 03:20:18;;;;;;;5.07;2.30;;;;;;;19.05;55.63;100427.78;4144898;28;20048;-67
2023/07/31 03:22:23;;;;;;;2.72;1.55;;;;;;;18.98;55.14;100429.69;4144251;28;20084;-67
2023/07/31 03:24:26;;;;;;;7.10;2.08;;;;;;;19.01;55.58;100419.06;4124296;28;20038;-67
2023/07/31 03:26:29;;;;;;;4.93;2.13;;;;;;;19.07;55.47;100434.78;4115990;28;20105;-67
2023/07/31 03:28:32;;;;;;;6.35;2.22;;;;;;;19.09;55.04;100432.97;4143501;28;20518;-67
2023/07/31 03:30:38;;;;;;;4.60;2.20;;;;;;;19.05;55.46;100428.66;4142023;28;21323;-67
2023/07/31 03:32:40;;;;;;;4.43;1.80;;;;;;;19.07;55.43;100428.63;4137475;28;20042;-67
2023/07/31 03:34:43;;;;;;;3.35;1.70;;;;;;;19.01;55.41;100421.69;4141913;28;20069;-67
2023/07/31 03:36:46;;;;;;;5.05;2.15;;;;;;;18.99;55.46;100419.09;4144732;28;20034;-67
2023/07/31 03:38:52;;;;;;;6.65;2.55;;;;;;;19.03;55.10;100417.28;4144235;28;20381;-66
2023/07/31 03:40:55;;;;;;;6.70;2.67;;;;;;;19.04;55.61;100419.03;4143343;28;20121;-67
2023/07/31 03:42:58;;;;;;;4.82;2.42;;;;;;;18.97;55.49;100420.06;4141768;28;20504;-67
2023/07/31 03:45:01;;;;;;;6.32;2.50;;;;;;;19.08;55.36;100412.78;4142501;28;20566;-67
2023/07/31 03:47:05;;;;;;;6.57;2.13;;;;;;;19.02;55.65;100415.53;4145204;28;20061;-67
2023/07/31 03:49:08;;;;;;;5.00;2.00;;;;;;;18.99;55.51;100420.88;4127233;28;20129;-67
2023/07/31 03:51:11;;;;;;;3.95;1.80;;;;;;;19.00;55.35;100423.47;4127634;28;20057;-67
2023/07/31 03:53:14;;;;;;;5.85;1.95;;;;;;;19.00;55.29;100422.63;4141219;28;20038;-68
2023/07/31 03:55:18;;;;;;;8.98;3.47;;;;;;;18.92;55.10;100427.19;4140647;28;20036;-69
2023/07/31 03:57:21;;;;;;;4.78;1.92;;;;;;;18.86;55.94;100425.53;4136851;28;20053;-69
2023/07/31 03:59:24;;;;;;;5.60;2.10;;;;;;;18.89;55.85;100420.19;4142548;28;20128;-69
2023/07/31 04:01:27;;;;;;;6.82;2.10;;;;;;;18.85;55.44;100415.84;4140056;28;20156;-69
2023/07/31 04:03:30;;;;;;;5.60;2.47;;;;;;;18.92;55.74;100416.63;4144903;28;20037;-69
2023/07/31 04:05:41;;;;;;;5.50;1.92;;;;;;;18.83;55.80;100421.16;4204559;27;21111;-67
2023/07/31 04:07:44;;;;;;;5.38;2.08;;;;;;;18.86;55.73;100422.91;4189842;28;20037;-68
2023/07/31 04:09:47;;;;;;;7.15;2.50;;;;;;;18.86;55.77;100425.53;4185937;28;20056;-67
2023/07/31 04:11:49;;;;;;;11.70;2.70;;;;;;;18.95;55.70;100424.47;4166309;28;20049;-68
2023/07/31 04:13:52;;;;;;;6.95;3.00;;;;;;;18.93;56.00;100427.13;4169216;28;20493;-68
2023/07/31 04:15:54;;;;;;;5.78;2.10;;;;;;;18.90;55.74;100431.63;4176180;28;20060;-68
2023/07/31 04:17:57;;;;;;;7.05;2.90;;;;;;;18.86;55.79;100436.06;4186020;28;20147;-68
2023/07/31 04:20:00;;;;;;;5.97;2.35;;;;;;;18.91;55.33;100428.06;4176855;28;20033;-68
2023/07/31 04:22:05;;;;;;;6.90;2.00;;;;;;;18.86;56.06;100432.53;4176095;28;20522;-68
2023/07/31 04:24:07;;;;;;;;;;;;;;;18.75;55.80;100431.00;4175538;28;20132;-68
2023/07/31 04:26:09;;;;;;;6.00;2.15;;;;;;;18.82;55.75;100427.34;4175760;28;20381;-67
2023/07/31 04:28:12;;;;;;;6.10;2.05;;;;;;;18.80;56.05;100426.50;4173381;28;20570;-67
2023/07/31 04:30:15;;;;;;;10.02;2.22;;;;;;;18.89;55.61;100421.97;4156622;28;20050;-67
2023/07/31 04:32:20;;;;;;;7.85;2.05;;;;;;;18.99;55.62;100416.47;4177368;28;20124;-67
2023/07/31 04:34:22;;;;;;;;;;;;;;;19.05;55.37;100420.75;4176668;28;20094;-67
2023/07/31 04:36:25;;;;;;;4.53;2.22;;;;;;;18.91;55.41;100423.69;4175747;28;20442;-67
2023/07/31 04:38:29;;;;;;;6.60;2.10;;;;;;;18.81;56.35;100427.38;4176071;28;20462;-67
2023/07/31 04:40:32;;;;;;;9.15;2.50;;;;;;;18.86;55.81;100422.00;4176466;28;20045;-67
2023/07/31 04:42:35;;;;;;;5.88;2.58;;;;;;;18.89;56.14;100414.94;4176318;28;20037;-67
2023/07/31 04:44:38;;;;;;;5.85;2.05;;;;;;;18.88;56.24;100409.69;4174748;28;20470;-66
2023/07/31 04:46:41;;;;;;;7.40;2.08;;;;;;;18.83;55.53;100418.53;4159679;28;20503;-67
2023/07/31 04:48:44;;;;;;;6.60;2.17;;;;;;;18.81;56.16;100412.44;4174048;28;20185;-67
2023/07/31 04:50:47;;;;;;;9.07;3.00;;;;;;;18.84;55.93;100411.50;4174865;28;20557;-67
2023/07/31 04:52:50;;;;;;;7.78;2.10;;;;;;;18.87;56.34;100407.97;4174371;28;20069;-67
2023/07/31 04:54:54;;;;;;;7.45;2.85;;;;;;;18.90;55.92;100410.53;4173960;28;20548;-67
2023/07/31 04:56:57;;;;;;;6.95;2.35;;;;;;;18.89;56.15;100414.94;4157741;28;20046;-66
2023/07/31 04:59:00;;;;;;;5.30;2.33;;;;;;;18.88;56.53;100417.59;4161875;28;20084;-67
2023/07/31 05:01:03;;;;;;;4.85;2.25;;;;;;;18.88;56.60;100413.22;4174238;28;20110;-67
2023/07/31 05:03:06;;;;;;;4.40;2.03;;;;;;;18.94;56.49;100415.72;4172577;28;20033;-67
2023/07/31 05:05:10;;;;;;;4.80;2.30;;;;;;;19.00;56.61;100406.81;4168411;28;20290;-67
2023/07/31 05:07:12;;;;;;;7.68;2.67;;;;;;;18.94;56.21;100412.19;4173189;28;20382;-67
2023/07/31 05:09:15;;;;;;;11.55;4.28;;;;;;;18.90;56.38;100416.66;4176888;28;20061;-67
2023/07/31 05:11:20;;;;;;;7.93;2.25;;;;;;;18.94;56.35;100417.47;4167978;28;20056;-67
2023/07/31 05:13:23;;;;;;;5.97;2.45;;;;;;;18.96;56.47;100416.53;4174362;28;20069;-67
2023/07/31 05:15:25;;;;;;;5.75;2.55;;;;;;;18.94;56.49;100410.44;4158840;28;20128;-67
2023/07/31 05:17:28;;;;;;;7.38;2.78;;;;;;;18.91;57.19;100417.53;4140441;28;20042;-67
2023/07/31 05:19:31;;;;;;;8.07;3.25;;;;;;;19.04;57.26;100402.34;4161127;28;20048;-67
2023/07/31 05:21:34;;;;;;;5.90;1.98;;;;;;;18.98;57.09;100409.50;4149161;28;20038;-66
2023/07/31 05:23:37;;;;;;;5.43;2.30;;;;;;;19.00;56.72;100410.31;4161584;28;20093;-66
2023/07/31 05:25:40;;;;;;;5.15;2.15;;;;;;;19.02;57.31;100416.41;4157223;28;20034;-67
2023/07/31 05:27:44;;;;;;;6.90;1.95;;;;;;;19.00;56.80;100412.94;4162396;28;20477;-67
2023/07/31 05:29:47;;;;;;;11.98;2.55;;;;;;;18.99;57.05;100415.63;4163125;28;20045;-67
2023/07/31 05:31:49;;;;;;;7.03;2.40;;;;;;;18.97;56.79;100412.16;4164736;28;20432;-67
2023/07/31 05:33:52;;;;;;;8.60;2.83;;;;;;;19.01;57.46;100403.25;4165600;28;20099;-67
2023/07/31 05:35:55;;;;;;;5.20;2.25;;;;;;;19.12;56.97;100403.91;4165490;28;20078;-67
2023/07/31 05:37:58;;;;;;;7.95;2.50;;;;;;;19.10;57.03;100394.28;4165250;28;20491;-67
2023/07/31 05:40:01;;;;;;;9.73;2.60;;;;;;;19.08;57.08;100410.13;4131524;28;20100;-67
2023/07/31 05:42:04;;;;;;;6.45;2.30;;;;;;;19.00;57.23;100412.09;4147623;28;20046;-67
2023/07/31 05:44:08;;;;;;;4.82;2.13;;;;;;;19.09;57.01;100388.16;4147679;28;20044;-67
2023/07/31 05:46:11;;;;;;;6.93;2.63;;;;;;;19.21;57.10;100401.97;4164477;28;20048;-66
2023/07/31 05:48:14;;;;;;;5.53;2.35;;;;;;;19.08;57.29;100401.38;4132498;28;20447;-67
2023/07/31 05:50:17;;;;;;;8.55;2.85;;;;;;;19.12;57.27;100400.41;4162236;28;20057;-67
2023/07/31 05:52:20;;;;;;;6.50;2.35;;;;;;;19.16;57.82;100396.81;4149374;28;20075;-67
2023/07/31 05:54:23;;;;;;;10.88;3.30;;;;;;;19.08;57.32;100396.97;4162511;28;20041;-67
2023/07/31 05:56:27;;;;;;;5.93;2.30;;;;;;;19.16;57.23;100402.09;4161618;28;20072;-67
2023/07/31 05:58:29;;;;;;;7.07;2.70;;;;;;;19.19;57.30;100399.38;4162917;28;20064;-67
2023/07/31 06:00:34;;;;;;;9.23;2.72;;;;;;;19.32;56.98;100390.28;4160467;28;20060;-67
2023/07/31 06:02:37;;;;;;;7.88;2.70;;;;;;;19.26;56.79;100398.34;4144397;28;20441;-67
2023/07/31 06:04:39;;;;;;;4.85;2.40;;;;;;;19.17;56.79;100399.41;4161144;28;20495;-66
2023/07/31 06:06:43;;;;;;;9.23;3.47;;;;;;;19.14;57.03;100401.22;4160900;28;20458;-67
2023/07/31 06:08:45;;;;;;;6.45;2.10;;;;;;;19.20;57.10;100393.19;4153642;28;20065;-67
2023/07/31 06:10:48;;;;;;;7.45;2.88;;;;;;;19.19;56.89;100396.75;4162562;28;20394;-66
2023/07/31 06:12:51;;;;;;;6.40;2.47;;;;;;;19.22;57.40;100391.41;4147011;28;20116;-67
2023/07/31 06:14:53;;;;;;;7.47;2.30;;;;;;;19.18;56.82;100389.72;4164731;28;20045;-67
2023/07/31 06:16:57;;;;;;;6.63;2.50;;;;;;;19.24;57.31;100388.72;4164559;28;20037;-67
2023/07/31 06:19:00;;;;;;;5.45;2.38;;;;;;;19.30;57.00;100384.19;4164762;28;20049;-66
2023/07/31 06:21:03;;;;;;;5.28;2.72;;;;;;;19.31;56.27;100385.03;4164131;28;20048;-67
2023/07/31 06:23:06;;;;;;;4.85;2.13;;;;;;;19.29;56.80;100386.84;4164731;28;20041;-67
2023/07/31 06:25:09;;;;;;;7.45;2.40;;;;;;;19.25;57.16;100387.84;4164435;28;20084;-67
2023/07/31 06:27:16;;;;;;;7.03;2.67;;;;;;;19.40;57.05;100382.19;4163781;28;20046;-67
2023/07/31 06:29:19;;;;;;;5.82;2.30;;;;;;;19.40;56.86;100381.31;4164352;28;20499;-67
2023/07/31 06:31:22;;;;;;;6.15;2.63;;;;;;;19.47;57.44;100380.28;4164508;28;20046;-67
2023/07/31 06:33:27;;;;;;;6.10;2.47;;;;;;;19.58;56.96;100378.25;4164590;28;20068;-67
2023/07/31 06:35:30;;;;;;;8.85;2.88;;;;;;;19.56;57.04;100385.31;4152858;28;20415;-67
2023/07/31 06:37:33;;;;;;;6.53;2.40;;;;;;;19.63;56.29;100379.00;4147917;28;20065;-67
2023/07/31 06:39:39;;;;;;;6.30;2.42;;;;;;;19.55;56.41;100380.94;4144845;28;20042;-67
2023/07/31 06:41:42;;;;;;;6.40;2.47;;;;;;;19.61;56.88;100377.28;4146945;28;20526;-67
2023/07/31 06:43:47;;;;;;;6.68;2.92;;;;;;;19.74;56.20;100373.44;4164438;28;20125;-67
2023/07/31 06:45:51;;;;;;;4.45;2.15;;;;;;;19.73;56.98;100378.75;4161721;28;20504;-67
2023/07/31 06:47:53;;;;;;;;;;;;;;;19.74;56.16;100370.81;4161264;28;20049;-67
2023/07/31 06:49:58;;;;;;;6.75;2.35;;;;;;;19.80;55.86;100375.09;4159902;28;19943;-66
2023/07/31 06:52:01;;;;;;;5.53;2.33;;;;;;;19.68;56.51;100387.69;4162104;28;20481;-66
2023/07/31 06:54:04;;;;;;;8.52;2.40;;;;;;;19.63;56.41;100386.91;4161262;28;20766;-67
2023/07/31 06:56:07;;;;;;;11.15;3.22;;;;;;;19.71;56.46;100389.34;4149075;28;20104;-67
2023/07/31 06:58:10;;;;;;;6.72;2.60;;;;;;;19.72;56.88;100393.72;4160923;28;20479;-66
2023/07/31 07:00:13;;;;;;;6.25;2.40;;;;;;;19.77;56.23;100393.59;4158986;28;20041;-67
2023/07/31 07:02:16;;;;;;;5.87;2.50;;;;;;;19.74;56.19;100386.63;4161288;28;20068;-67
2023/07/31 07:04:19;;;;;;;7.50;2.72;;;;;;;19.80;56.36;100383.91;4141691;28;20307;-68
2023/07/31 07:06:24;;;;;;;4.25;2.00;;;;;;;19.85;56.31;100387.28;4146037;28;20037;-67
2023/07/31 07:08:27;;;;;;;13.10;3.15;;;;;;;20.05;55.69;100386.75;4160832;28;20337;-67
2023/07/31 07:10:30;;;;;;;6.47;2.60;;;;;;;20.00;55.78;100375.44;4161838;28;20064;-67
2023/07/31 07:12:34;;;;;;;7.47;2.50;;;;;;;20.11;55.75;100380.47;4158217;28;20186;-67
2023/07/31 07:14:37;;;;;;;4.13;1.77;;;;;;;20.19;55.66;100396.09;4160289;28;20064;-67
2023/07/31 07:16:41;;;;;;;5.70;2.22;;;;;;;20.31;55.69;100386.97;4160638;28;20064;-67
2023/07/31 07:18:44;;;;;;;7.65;2.60;;;;;;;20.34;55.30;100389.50;4161003;28;20041;-67
2023/07/31 07:21:04;;;;;;;4.78;2.10;;;;;;;20.30;55.84;100393.16;4173072;28;20087;-67
2023/07/31 07:23:08;;;;;;;5.35;2.22;;;;;;;20.48;55.08;100382.09;4158185;28;20069;-67
2023/07/31 07:25:14;;;;;;;6.03;2.38;;;;;;;20.38;55.15;100386.78;4162682;28;20505;-67
2023/07/31 07:27:16;;;;;;;7.43;2.60;;;;;;;20.56;54.54;100380.09;4145710;28;20047;-67
2023/07/31 07:29:19;;;;;;;6.05;2.28;;;;;;;20.44;55.03;100385.72;4157911;28;20402;-67
2023/07/31 07:31:22;;;;;;;6.13;2.67;;;;;;;20.52;55.54;100374.94;4160531;28;20037;-67
2023/07/31 07:33:24;;;;;;;6.40;2.60;;;;;;;20.65;55.02;100378.97;4160818;28;20048;-67
2023/07/31 07:35:27;;;;;;;6.95;3.33;;;;;;;20.50;55.13;100388.22;4157492;28;20034;-67
2023/07/31 07:37:30;;;;;;;8.15;2.78;;;;;;;20.42;55.54;100379.63;4146690;28;20063;-67
2023/07/31 07:39:36;;;;;;;6.03;2.42;;;;;;;20.38;55.71;100384.13;4160345;28;20538;-67
2023/07/31 07:41:39;;;;;;;5.15;2.13;;;;;;;20.46;55.70;100389.19;4155629;28;20099;-67
2023/07/31 07:43:43;;;;;;;6.80;1.77;;;;;;;20.62;55.14;100381.69;4146766;28;20046;-67
2023/07/31 07:45:46;;;;;;;7.32;2.70;;;;;;;20.75;55.08;100377.81;4160664;28;20041;-67
2023/07/31 07:47:48;;;;;;;5.57;2.35;;;;;;;20.91;54.93;100385.31;4145433;28;20058;-67
2023/07/31 07:49:51;;;;;;;7.07;2.58;;;;;;;21.00;54.80;100374.44;4161138;28;20041;-67
2023/07/31 07:51:55;;;;;;;5.77;2.37;;;;;;;21.22;55.15;100366.72;4161009;28;20510;-67
2023/07/31 07:53:58;;;;;;;6.18;2.40;;;;;;;21.46;54.14;100369.47;4157972;28;20354;-67
2023/07/31 07:56:02;;;;;;;5.20;2.40;;;;;;;21.65;53.10;100366.28;4142762;28;20045;-67
2023/07/31 07:58:05;;;;;;;5.88;2.25;;;;;;;21.63;52.74;100366.31;4159877;28;20037;-67
2023/07/31 08:00:10;;;;;;;5.40;2.30;;;;;;;21.58;53.23;100360.31;4156625;28;20041;-67
2023/07/31 08:02:15;;;;;;;6.38;2.65;;;;;;;21.67;53.05;100359.13;4160287;28;20462;-67
2023/07/31 08:04:22;;;;;;;6.63;2.63;;;;;;;21.71;52.85;100361.66;4156259;28;20041;-67
2023/07/31 08:06:25;;;;;;;6.68;3.25;;;;;;;21.88;53.05;100368.16;4144965;28;20073;-67
2023/07/31 08:08:28;;;;;;;8.98;3.15;;;;;;;21.73;52.16;100357.16;4163088;28;20428;-68
2023/07/31 08:10:31;;;;;;;7.75;2.25;;;;;;;21.64;52.57;100343.38;4164467;22;20481;-69
2023/07/31 08:12:35;;;;;;;9.35;3.00;;;;;;;21.69;52.65;100346.75;4144492;28;20050;-69
2023/07/31 08:14:37;;;;;;;7.10;2.58;;;;;;;21.83;51.98;100333.91;4145962;28;20455;-68
2023/07/31 08:16:40;;;;;;;6.05;2.33;;;;;;;21.94;52.26;100341.47;4144465;28;20086;-69
2023/07/31 08:18:44;;;;;;;7.00;2.28;;;;;;;21.84;52.49;100335.63;4146138;28;20042;-69
2023/07/31 08:20:47;;;;;;;7.53;2.53;;;;;;;21.88;52.48;100337.25;4138777;28;20047;-69
2023/07/31 08:22:50;;;;;;;5.55;2.28;;;;;;;22.03;52.73;100335.84;4130440;28;20042;-69
2023/07/31 08:24:53;;;;;;;8.85;2.92;;;;;;;22.14;52.64;100332.81;4128474;28;20049;-69
2023/07/31 08:26:56;;;;;;;7.15;3.05;;;;;;;21.97;51.63;100321.03;4129099;28;20039;-70
2023/07/31 08:29:00;;;;;;;7.90;2.90;;;;;;;21.86;51.86;100331.16;4130637;28;20126;-66
2023/07/31 08:31:03;;;;;;;7.30;2.40;;;;;;;21.84;51.72;100329.47;4130752;28;20038;-68
2023/07/31 08:33:06;;;;;;;9.18;2.50;;;;;;;21.76;52.02;100316.50;4130703;28;20043;-69
2023/07/31 08:35:09;;;;;;;6.55;2.60;;;;;;;21.63;52.56;100315.22;4130671;28;20064;-69
2023/07/31 08:37:12;;;;;;;7.72;2.67;;;;;;;21.64;52.92;100316.91;4130160;28;20042;-69
2023/07/31 08:39:15;;;;;;;6.53;2.38;;;;;;;21.68;52.90;100307.97;4130611;28;20108;-67
2023/07/31 08:41:18;;;;;;;7.38;3.08;;;;;;;21.72;51.99;100301.66;4130576;28;20144;-69
2023/07/31 08:43:23;;;;;;;6.18;2.40;;;;;;;21.57;52.37;100306.56;4130513;28;20038;-69
2023/07/31 08:45:28;;;;;;;6.18;2.47;;;;;;;21.50;53.22;100296.22;4126697;28;20127;-69
2023/07/31 08:47:31;;;;;;;6.63;2.80;;;;;;;21.62;53.80;100287.88;4127934;28;20030;-69
2023/07/31 08:49:35;;;;;;;10.10;3.03;;;;;;;21.76;53.11;100292.69;4125218;28;20031;-67
2023/07/31 08:51:39;;;;;;;10.25;2.45;;;;;;;21.63;53.10;100294.03;4128852;28;20062;-69
2023/07/31 08:53:42;;;;;;;6.63;2.47;;;;;;;21.69;53.69;100284.09;4130014;28;20130;-70
2023/07/31 08:55:45;;;;;;;8.93;3.78;;;;;;;21.68;53.70;100285.00;4130759;28;20066;-69
2023/07/31 08:57:48;;;;;;;7.85;2.30;;;;;;;21.60;53.64;100287.91;4128419;28;20030;-67
2023/07/31 08:59:52;;;;;;;7.72;3.28;;;;;;;21.50;53.57;100299.69;4129792;28;20076;-68
2023/07/31 09:02:00;;;;;;;6.35;2.90;;;;;;;21.42;53.27;100286.75;4128665;28;20070;-69
2023/07/31 09:04:05;;;;;;;8.38;3.10;;;;;;;21.53;52.81;100289.03;4130069;28;20053;-69
2023/07/31 09:06:08;;;;;;;7.65;2.97;;;;;;;21.67;52.62;100280.66;4130069;28;20050;-69
2023/07/31 09:08:13;;;;;;;5.72;2.47;;;;;;;21.63;52.64;100273.72;4129237;28;20034;-69
2023/07/31 09:10:16;;;;;;;;;;;;;;;21.67;52.63;100280.66;4127389;28;20098;-69
2023/07/31 09:12:19;;;;;;;7.47;2.70;;;;;;;21.66;52.40;100294.78;4130208;28;20355;-69
2023/07/31 09:14:23;;;;;;;8.68;3.10;;;;;;;21.78;52.10;100288.19;4129825;28;20049;-69
2023/07/31 09:16:28;;;;;;;6.43;3.20;;;;;;;21.91;51.33;100286.84;4129306;28;20048;-69
2023/07/31 09:18:32;;;;;;;7.93;2.97;;;;;;;21.97;51.38;100278.69;4130435;28;20073;-68
2023/07/31 09:20:35;;;;;;;7.90;2.92;;;;;;;22.08;50.19;100274.81;4129130;28;20038;-69
2023/07/31 09:22:38;;;;;;;6.65;2.58;;;;;;;22.12;50.60;100276.41;4129511;28;20101;-69
2023/07/31 09:24:41;;;;;;;10.23;2.90;;;;;;;22.13;51.40;100275.47;4129104;28;20507;-69
2023/07/31 09:26:43;;;;;;;6.05;2.47;;;;;;;22.24;50.86;100275.06;4129624;28;20057;-69
2023/07/31 09:28:46;;;;;;;6.15;2.40;;;;;;;22.55;50.57;100282.78;4129350;28;20061;-69
2023/07/31 09:30:50;;;;;;;8.15;3.25;;;;;;;22.95;50.38;100272.38;4130366;28;20057;-69
2023/07/31 09:33:01;;;;;;;9.48;3.65;;;;;;;23.03;49.27;100262.34;4129422;28;20084;-69
2023/07/31 09:35:15;;;;;;;5.82;2.65;;;;;;;22.98;49.23;100266.97;4128227;28;20176;-69
2023/07/31 09:37:18;;;;;;;8.27;2.88;;;;;;;22.89;49.54;100265.53;4126247;28;20038;-69